Terminal Aerodrome Forecast
Issued by NWS

Home | Current Version | Previous Version | Text Only | Print | Product List | Glossary On
Versions: 1 2 3 4 5 6 7 8 9 10 11 12 13 14 15 16 17 18
000
FTAK31 PAFA 201740
TAFAUN
TAF
PAUN 201740Z 2018/2118 12003KT P6SM VCSH OVC060
     FM202300 33015KT P6SM SCT100
     FM211000 26006KT P6SM BCFG FEW005=

USA.gov is the U.S. government's official web portal to all federal, state and local government web resources and services.